Time;durP1;ratioP1;P1;durP2;ratioP2;P2;SDS_P1;SDS_P2;PMS_P1;PMS_P2;Temp;Humidity;BMP_temperature;BMP_pressure;BME280_temperature;BME280_humidity;BME280_pressure;Samples;Min_cycle;Max_cycle;Signal;HPM_P1;HPM_P2
2023/04/19 00:01:30;;;;;;;10.77;8.53;;;11.70;99.90;;;;;;5175944;27;20206;-60
2023/04/19 00:03:57;;;;;;;13.03;8.87;;;11.70;99.90;;;;;;5175924;27;20294;-61
2023/04/19 00:06:29;;;;;;;11.10;8.80;;;11.70;99.90;;;;;;5175772;27;20241;-62
2023/04/19 00:08:56;;;;;;;12.43;8.83;;;11.70;99.90;;;;;;5175552;27;20210;-62
2023/04/19 00:11:23;;;;;;;12.03;8.87;;;11.60;99.90;;;;;;5175713;27;20247;-60
2023/04/19 00:13:49;;;;;;;11.63;8.73;;;11.70;99.90;;;;;;5175591;27;20687;-60
2023/04/19 00:16:16;;;;;;;14.00;8.80;;;11.70;99.90;;;;;;5175637;27;20231;-60
2023/04/19 00:18:43;;;;;;;10.90;8.07;;;11.60;99.90;;;;;;5175306;27;20205;-61
2023/04/19 00:21:10;;;;;;;11.23;8.47;;;11.70;99.90;;;;;;5175459;27;20201;-61
2023/04/19 00:23:38;;;;;;;10.33;8.33;;;11.80;99.90;;;;;;5175297;27;20248;-61
2023/04/19 00:26:06;;;;;;;10.10;8.03;;;11.60;99.90;;;;;;5175645;27;20669;-62
2023/04/19 00:28:33;;;;;;;12.53;9.13;;;11.60;99.90;;;;;;5175247;27;20205;-62
2023/04/19 00:31:00;;;;;;;12.63;9.13;;;11.60;99.90;;;;;;5175072;27;20225;-63
2023/04/19 00:33:27;;;;;;;12.40;9.13;;;11.60;99.90;;;;;;5175078;27;20225;-62
2023/04/19 00:35:53;;;;;;;12.43;8.47;;;11.60;99.90;;;;;;5175548;27;20679;-61
2023/04/19 00:38:20;;;;;;;10.87;8.37;;;11.60;99.90;;;;;;5174766;27;20205;-61
2023/04/19 00:40:48;;;;;;;12.73;8.87;;;11.60;99.90;;;;;;5174995;27;20665;-60
2023/04/19 00:43:17;;;;;;;11.03;8.33;;;11.60;99.90;;;;;;5175025;27;20221;-60
2023/04/19 00:45:44;;;;;;;12.83;9.47;;;11.70;99.90;;;;;;5175189;27;20744;-60
2023/04/19 00:48:11;;;;;;;13.33;8.83;;;11.70;99.90;;;;;;5174624;27;20286;-60
2023/04/19 00:50:38;;;;;;;12.87;8.70;;;11.70;99.90;;;;;;5174677;27;20293;-61
2023/04/19 00:53:05;;;;;;;15.03;9.43;;;11.70;99.90;;;;;;5174915;27;20230;-61
2023/04/19 00:55:32;;;;;;;11.50;8.90;;;11.70;99.90;;;;;;5174961;27;20201;-61
2023/04/19 00:58:00;;;;;;;12.23;9.30;;;11.80;99.90;;;;;;5174623;27;20205;-61
2023/04/19 01:00:27;;;;;;;11.40;9.13;;;11.80;99.90;;;;;;5174764;27;20197;-60
2023/04/19 01:02:54;;;;;;;13.30;9.00;;;11.80;99.90;;;;;;5174580;27;20225;-61
2023/04/19 01:05:20;;;;;;;12.23;8.83;;;11.80;99.90;;;;;;5174339;27;20648;-60
2023/04/19 01:07:47;;;;;;;12.37;8.63;;;11.70;99.90;;;;;;5174358;27;20616;-61
2023/04/19 01:10:14;;;;;;;13.73;9.00;;;11.70;99.90;;;;;;5175107;27;20580;-61
2023/04/19 01:12:41;;;;;;;11.23;8.57;;;11.70;99.90;;;;;;5174634;27;20320;-62
2023/04/19 01:15:10;;;;;;;11.03;8.50;;;11.70;99.90;;;;;;5174531;27;20205;-61
2023/04/19 01:17:37;;;;;;;14.60;9.37;;;11.60;99.90;;;;;;5174109;27;20201;-61
2023/04/19 01:20:06;;;;;;;12.37;8.90;;;11.60;99.90;;;;;;5174829;27;20203;-61
2023/04/19 01:22:36;;;;;;;10.00;8.13;;;11.50;99.90;;;;;;5174518;27;20218;-61
2023/04/19 01:25:03;;;;;;;11.10;9.17;;;11.50;99.90;;;;;;5174349;27;20669;-61
2023/04/19 01:27:30;;;;;;;11.17;8.73;;;11.50;99.90;;;;;;5174390;27;20209;-62
2023/04/19 01:29:57;;;;;;;12.03;8.60;;;11.40;99.90;;;;;;5174060;27;20216;-61
2023/04/19 01:32:25;;;;;;;10.87;8.73;;;11.30;99.90;;;;;;5174316;22;20230;-56
2023/04/19 01:34:52;;;;;;;10.23;9.13;;;11.30;99.90;;;;;;5105373;28;20224;-56
2023/04/19 01:37:19;;;;;;;13.73;9.33;;;11.30;99.90;;;;;;5112860;28;20662;-57
2023/04/19 01:39:47;;;;;;;10.53;8.53;;;11.20;99.90;;;;;;5112371;28;20210;-56
2023/04/19 01:42:13;;;;;;;13.63;9.50;;;11.20;99.90;;;;;;5112542;28;20227;-56
2023/04/19 01:44:40;;;;;;;11.43;9.20;;;11.20;99.90;;;;;;5112458;28;20724;-55
2023/04/19 01:47:07;;;;;;;12.03;9.53;;;11.20;99.90;;;;;;5112435;28;20214;-56
2023/04/19 01:49:33;;;;;;;10.87;8.67;;;11.20;99.90;;;;;;5112384;28;20207;-56
2023/04/19 01:52:00;;;;;;;11.90;8.40;;;11.20;99.90;;;;;;5112377;28;20655;-56
2023/04/19 01:54:27;;;;;;;12.37;9.00;;;11.10;99.90;;;;;;5112418;28;20211;-55
2023/04/19 01:56:55;;;;;;;14.23;10.13;;;11.10;99.90;;;;;;5112265;28;20212;-56
2023/04/19 01:59:22;;;;;;;12.00;9.53;;;11.00;99.90;;;;;;5112064;28;20231;-56
2023/04/19 02:01:49;;;;;;;11.30;9.43;;;11.10;99.90;;;;;;5112046;28;20674;-56
2023/04/19 02:04:16;;;;;;;12.57;9.97;;;11.10;99.90;;;;;;5112703;28;20200;-56
2023/04/19 02:06:42;;;;;;;11.33;9.30;;;11.20;99.90;;;;;;5112074;28;20208;-55
2023/04/19 02:09:09;;;;;;;11.53;9.10;;;11.20;99.90;;;;;;5112032;28;20643;-56
2023/04/19 02:11:36;;;;;;;11.10;8.90;;;11.20;99.90;;;;;;5112103;28;20679;-56
2023/04/19 02:14:04;;;;;;;10.17;8.57;;;11.20;99.90;;;;;;5112212;28;20481;-56
2023/04/19 02:16:31;;;;;;;11.53;9.80;;;11.20;99.90;;;;;;5113267;28;20204;-56
2023/04/19 02:18:58;;;;;;;12.83;9.50;;;11.20;99.90;;;;;;5115790;28;20737;-57
2023/04/19 02:21:25;;;;;;;12.20;9.53;;;11.10;99.90;;;;;;5116447;28;20195;-57
2023/04/19 02:23:52;;;;;;;12.00;9.67;;;11.20;99.90;;;;;;5115923;28;20233;-56
2023/04/19 02:26:19;;;;;;;11.90;9.43;;;11.10;99.90;;;;;;5115944;28;20212;-57
2023/04/19 02:28:45;;;;;;;12.57;9.37;;;11.20;99.90;;;;;;5115688;28;20728;-56
2023/04/19 02:31:14;;;;;;;11.10;9.20;;;11.20;99.90;;;;;;5115813;28;20238;-57
2023/04/19 02:33:41;;;;;;;12.50;9.53;;;11.20;99.90;;;;;;5115957;28;20262;-57
2023/04/19 02:36:08;;;;;;;13.07;9.33;;;11.20;99.90;;;;;;5115964;28;20204;-57
2023/04/19 02:38:35;;;;;;;10.93;9.30;;;11.20;99.90;;;;;;5115625;28;20932;-57
2023/04/19 02:41:03;;;;;;;11.57;9.47;;;11.20;99.90;;;;;;5115658;28;20199;-57
2023/04/19 02:43:30;;;;;;;10.83;9.33;;;11.30;99.90;;;;;;5115736;28;20670;-56
2023/04/19 02:45:57;;;;;;;11.90;9.43;;;11.30;99.90;;;;;;5116252;28;20227;-56
2023/04/19 02:48:25;;;;;;;11.67;9.57;;;11.40;99.90;;;;;;5115828;28;20740;-57
2023/04/19 02:50:52;;;;;;;10.40;9.30;;;11.40;99.90;;;;;;5116080;28;20663;-57
2023/04/19 02:53:19;;;;;;;14.20;10.43;;;11.40;99.90;;;;;;5116264;28;20707;-57
2023/04/19 02:55:46;;;;;;;11.57;9.97;;;11.50;99.90;;;;;;5115779;28;20612;-57
2023/04/19 02:58:13;;;;;;;12.77;9.40;;;11.50;99.90;;;;;;5115733;28;20204;-57
2023/04/19 03:00:39;;;;;;;12.87;9.50;;;11.50;99.90;;;;;;5115432;28;20204;-57
2023/04/19 03:03:08;;;;;;;11.73;9.50;;;11.50;99.90;;;;;;5115298;28;20635;-56
2023/04/19 03:05:36;;;;;;;11.20;9.40;;;11.50;99.90;;;;;;5115439;28;20219;-56
2023/04/19 03:08:03;;;;;;;12.27;9.80;;;11.40;99.90;;;;;;5115076;28;20208;-56
2023/04/19 03:10:30;;;;;;;10.63;9.30;;;11.40;99.90;;;;;;5115027;28;20611;-57
2023/04/19 03:12:56;;;;;;;13.57;9.93;;;11.40;99.90;;;;;;5115318;28;20232;-56
2023/04/19 03:15:23;;;;;;;13.77;10.70;;;11.20;99.90;;;;;;5115007;28;20206;-57
2023/04/19 03:17:50;;;;;;;11.47;9.57;;;11.10;99.90;;;;;;5114962;28;20203;-57
2023/04/19 03:20:17;;;;;;;12.13;9.80;;;11.00;99.90;;;;;;5115074;28;20663;-56
2023/04/19 03:22:45;;;;;;;13.73;10.13;;;10.90;99.90;;;;;;5114709;28;20310;-57
2023/04/19 03:25:12;;;;;;;12.77;9.60;;;10.80;99.90;;;;;;5114801;28;20211;-57
2023/04/19 03:27:39;;;;;;;13.10;9.73;;;10.80;99.90;;;;;;5115018;28;20279;-56
2023/04/19 03:30:07;;;;;;;11.17;9.40;;;10.80;99.90;;;;;;5114697;28;20211;-57
2023/04/19 03:32:33;;;;;;;14.57;11.07;;;10.80;99.90;;;;;;5114394;28;20310;-57
2023/04/19 03:35:00;;;;;;;14.03;10.73;;;10.80;99.90;;;;;;5114894;28;20207;-57
2023/04/19 03:37:27;;;;;;;12.17;10.33;;;10.80;99.90;;;;;;5114643;28;20667;-56
2023/04/19 03:39:55;;;;;;;12.97;10.37;;;10.80;99.90;;;;;;5114588;28;20210;-57
2023/04/19 03:42:22;;;;;;;12.13;10.00;;;10.80;99.90;;;;;;5114809;28;20224;-57
2023/04/19 03:44:49;;;;;;;11.17;9.67;;;10.70;99.90;;;;;;5114463;28;20211;-56
2023/04/19 03:47:15;;;;;;;12.40;9.73;;;10.70;99.90;;;;;;5114499;28;20675;-57
2023/04/19 03:49:42;;;;;;;13.10;10.07;;;10.70;99.90;;;;;;5114418;28;20214;-57
2023/04/19 03:52:09;;;;;;;11.40;9.37;;;10.60;99.90;;;;;;5114354;28;21004;-57
2023/04/19 03:54:36;;;;;;;12.23;9.67;;;10.60;99.90;;;;;;5115132;28;20237;-56
2023/04/19 03:57:04;;;;;;;12.87;10.03;;;10.40;99.90;;;;;;5114808;28;20210;-56
2023/04/19 03:59:31;;;;;;;11.77;10.40;;;10.30;99.90;;;;;;5114418;28;20647;-57
2023/04/19 04:01:58;;;;;;;11.53;10.23;;;10.20;99.90;;;;;;5114205;28;20230;-56
2023/04/19 04:04:25;;;;;;;11.37;9.40;;;10.10;99.90;;;;;;5114944;28;20244;-56
2023/04/19 04:06:52;;;;;;;13.03;10.00;;;10.10;99.90;;;;;;5114273;28;20207;-56
2023/04/19 04:09:18;;;;;;;13.00;9.90;;;10.00;99.90;;;;;;5114297;28;20215;-57
2023/04/19 04:11:45;;;;;;;13.07;10.23;;;10.00;99.90;;;;;;5113974;28;20231;-57
2023/04/19 04:14:13;;;;;;;11.20;9.30;;;9.90;99.90;;;;;;5113912;28;20203;-56
2023/04/19 04:16:40;;;;;;;12.97;10.17;;;9.80;99.90;;;;;;5113962;28;20207;-56
2023/04/19 04:19:07;;;;;;;12.67;10.47;;;9.80;99.90;;;;;;5113545;28;20599;-57
2023/04/19 04:21:33;;;;;;;13.23;10.97;;;9.70;99.90;;;;;;5114076;28;20203;-57
2023/04/19 04:24:02;;;;;;;15.23;11.17;;;9.60;99.90;;;;;;5113753;28;20212;-57
2023/04/19 04:26:32;;;;;;;12.77;10.33;;;9.60;99.90;;;;;;5114285;28;20215;-57
2023/04/19 04:28:59;;;;;;;15.00;11.50;;;9.60;99.90;;;;;;5113542;28;20215;-57
2023/04/19 04:31:27;;;;;;;13.77;10.73;;;9.50;99.90;;;;;;5113297;28;20208;-58
2023/04/19 04:33:54;;;;;;;13.93;10.57;;;9.50;99.90;;;;;;5113076;28;20242;-56
2023/04/19 04:36:21;;;;;;;13.47;10.40;;;9.50;99.90;;;;;;5113539;28;20210;-56
2023/04/19 04:38:48;;;;;;;13.57;10.73;;;9.50;99.90;;;;;;5113003;28;20257;-55
2023/04/19 04:41:15;;;;;;;12.13;10.73;;;9.50;99.90;;;;;;5113303;28;20214;-56
2023/04/19 04:43:42;;;;;;;13.17;10.53;;;9.40;99.90;;;;;;5113404;28;20227;-56
2023/04/19 04:46:09;;;;;;;15.50;10.13;;;9.40;99.90;;;;;;5113096;28;20216;-56
2023/04/19 04:48:37;;;;;;;14.67;11.07;;;9.50;99.90;;;;;;5113201;28;20211;-56
2023/04/19 04:51:04;;;;;;;13.13;10.60;;;9.50;99.90;;;;;;5113426;28;20217;-56
2023/04/19 04:53:30;;;;;;;13.30;10.60;;;9.60;99.90;;;;;;5113099;28;20232;-57
2023/04/19 04:55:57;;;;;;;12.13;10.27;;;9.70;99.90;;;;;;5112864;28;20208;-56
2023/04/19 04:58:24;;;;;;;12.43;10.30;;;9.70;99.90;;;;;;5112825;28;20260;-56
2023/04/19 05:00:51;;;;;;;12.50;10.23;;;9.70;99.90;;;;;;5113151;28;20215;-56
2023/04/19 05:03:18;;;;;;;14.67;11.47;;;9.70;99.90;;;;;;5113016;28;20710;-56
2023/04/19 05:05:46;;;;;;;11.70;10.20;;;9.70;99.90;;;;;;5112663;28;20556;-56
2023/04/19 05:08:13;;;;;;;10.93;9.73;;;9.70;99.90;;;;;;5112613;28;20667;-56
2023/04/19 05:10:40;;;;;;;15.10;10.60;;;9.80;99.90;;;;;;5112874;28;20203;-57
2023/04/19 05:13:07;;;;;;;12.93;10.53;;;9.90;99.90;;;;;;5112295;28;20252;-56
2023/04/19 05:15:33;;;;;;;12.40;10.73;;;10.00;99.90;;;;;;5112622;28;20214;-55
2023/04/19 05:18:00;;;;;;;11.50;9.83;;;10.10;99.90;;;;;;5112484;28;20215;-56
2023/04/19 05:20:27;;;;;;;10.70;9.50;;;10.30;99.90;;;;;;5112662;28;20214;-55
2023/04/19 05:22:59;;;;;;;11.57;10.33;;;10.60;99.90;;;;;;5112707;28;20216;-56
2023/04/19 05:25:26;;;;;;;12.17;10.03;;;10.80;99.90;;;;;;5113051;28;20294;-56
2023/04/19 05:27:53;;;;;;;13.87;10.40;;;10.90;99.90;;;;;;5112531;28;20624;-57
2023/04/19 05:30:20;;;;;;;12.07;9.67;;;11.10;99.90;;;;;;5112589;28;20902;-57
2023/04/19 05:32:47;;;;;;;10.07;8.73;;;11.30;99.90;;;;;;5112477;28;20702;-56
2023/04/19 05:35:13;;;;;;;11.97;9.57;;;11.50;99.90;;;;;;5112897;28;20542;-57
2023/04/19 05:37:41;;;;;;;12.33;9.83;;;11.60;99.90;;;;;;5112597;28;20207;-56
2023/04/19 05:40:09;;;;;;;9.63;8.63;;;11.80;99.90;;;;;;5112751;28;20600;-57
2023/04/19 05:42:36;;;;;;;10.27;8.80;;;12.00;99.90;;;;;;5112536;28;20232;-57
2023/04/19 05:45:04;;;;;;;12.43;9.27;;;12.20;99.90;;;;;;5112722;28;20689;-57
2023/04/19 05:47:31;;;;;;;11.53;9.27;;;12.50;99.90;;;;;;5112548;28;20211;-57
2023/04/19 05:49:58;;;;;;;12.07;9.30;;;12.60;99.90;;;;;;5111941;28;20203;-56
2023/04/19 05:52:24;;;;;;;10.30;8.60;;;12.70;99.90;;;;;;5114443;28;20243;-57
2023/04/19 05:54:51;;;;;;;11.30;9.37;;;12.70;99.90;;;;;;5116390;28;20284;-56
2023/04/19 05:57:20;;;;;;;10.70;8.80;;;12.80;99.90;;;;;;5115982;28;20218;-56
2023/04/19 05:59:46;;;;;;;11.23;8.60;;;13.00;99.90;;;;;;5115897;28;20214;-57
2023/04/19 06:02:13;;;;;;;10.10;8.37;;;13.30;99.90;;;;;;5116254;28;20297;-57
2023/04/19 06:04:40;;;;;;;10.40;8.53;;;13.50;99.90;;;;;;5116291;28;20697;-57
2023/04/19 06:07:07;;;;;;;9.80;8.13;;;13.90;99.90;;;;;;5116441;28;20203;-56
2023/04/19 06:09:33;;;;;;;10.63;8.20;;;14.30;99.90;;;;;;5116049;28;20220;-56
2023/04/19 06:12:00;;;;;;;8.87;7.40;;;14.80;99.90;;;;;;5115945;28;20725;-57
2023/04/19 06:14:28;;;;;;;10.30;8.00;;;15.70;99.90;;;;;;5116451;28;20207;-56
2023/04/19 06:16:55;;;;;;;9.33;7.00;;;16.60;99.90;;;;;;5116123;28;20233;-56
2023/04/19 06:19:22;;;;;;;8.43;7.47;;;17.20;99.90;;;;;;5115873;28;20231;-56
2023/04/19 06:21:50;;;;;;;9.23;7.50;;;17.00;99.90;;;;;;5116010;28;20203;-56
2023/04/19 06:24:17;;;;;;;7.87;7.07;;;16.60;99.90;;;;;;5116207;28;20207;-56
2023/04/19 06:26:43;;;;;;;10.80;7.07;;;16.20;99.90;;;;;;5116031;28;20709;-55
2023/04/19 06:29:10;;;;;;;8.77;7.07;;;15.70;99.90;;;;;;5116038;28;20246;-57
2023/04/19 06:31:38;;;;;;;8.97;6.97;;;15.50;99.90;;;;;;5115761;28;20701;-57
2023/04/19 06:34:05;;;;;;;10.43;7.20;;;15.40;99.90;;;;;;5115922;28;20230;-57
2023/04/19 06:36:32;;;;;;;8.40;7.50;;;15.30;99.90;;;;;;5116159;28;20203;-56
2023/04/19 06:38:59;;;;;;;8.00;7.20;;;15.10;99.90;;;;;;5116429;28;20203;-56
2023/04/19 06:41:26;;;;;;;8.83;7.10;;;15.00;99.90;;;;;;5116403;28;20210;-56
2023/04/19 06:43:52;;;;;;;9.87;7.47;;;14.70;99.90;;;;;;5116749;28;20227;-56
2023/04/19 06:46:19;;;;;;;9.17;7.70;;;14.50;99.90;;;;;;5114098;28;20377;-56
2023/04/19 06:48:47;;;;;;;9.27;7.50;;;14.40;99.90;;;;;;5113294;28;20595;-57
2023/04/19 06:51:14;;;;;;;8.37;7.17;;;14.50;99.90;;;;;;5114988;28;20207;-56
2023/04/19 06:53:41;;;;;;;10.80;7.40;;;14.70;99.90;;;;;;5115221;28;20223;-56
2023/04/19 06:56:09;;;;;;;8.90;7.20;;;14.90;99.90;;;;;;5114997;28;20207;-57
2023/04/19 06:58:35;;;;;;;10.17;7.97;;;14.90;99.90;;;;;;5114943;28;20211;-57
2023/04/19 07:01:03;;;;;;;8.17;7.23;;;14.90;99.90;;;;;;5114557;28;20200;-56
2023/04/19 07:03:30;;;;;;;9.30;7.33;;;14.90;99.90;;;;;;5114304;28;20264;-56
2023/04/19 07:05:58;;;;;;;7.93;7.13;;;15.10;99.90;;;;;;5115035;28;20239;-56
2023/04/19 07:08:26;;;;;;;8.77;7.10;;;15.10;99.90;;;;;;5114935;28;20213;-57
2023/04/19 07:10:53;;;;;;;9.13;7.37;;;15.10;99.90;;;;;;5114932;28;20211;-57
2023/04/19 07:13:19;;;;;;;9.60;6.97;;;15.30;99.90;;;;;;5114818;28;20231;-57
2023/04/19 07:15:46;;;;;;;8.40;6.70;;;15.60;99.90;;;;;;5115532;28;20586;-57
2023/04/19 07:18:14;;;;;;;9.23;6.45;;;16.30;99.90;;;;;;5114861;28;20739;-56
2023/04/19 07:20:43;;;;;;;7.25;6.10;;;17.50;99.90;;;;;;5114686;28;20253;-57
2023/04/19 07:23:11;;;;;;;7.90;6.35;;;19.30;99.90;;;;;;5114232;28;20223;-57
2023/04/19 07:25:38;;;;;;;6.55;5.53;;;21.10;99.90;;;;;;5114341;28;20203;-57
2023/04/19 07:28:05;;;;;;;7.45;5.32;;;22.60;99.10;;;;;;5114622;28;20200;-58
2023/04/19 07:30:32;;;;;;;6.35;5.50;;;23.00;96.30;;;;;;5114144;28;20207;-57
2023/04/19 07:32:59;;;;;;;6.53;5.50;;;22.30;96.10;;;;;;5126835;22;20231;-61
2023/04/19 07:35:25;;;;;;;7.68;5.65;;;21.00;97.20;;;;;;5104983;28;20227;-64
2023/04/19 07:37:52;;;;;;;6.72;5.97;;;20.10;98.60;;;;;;5112987;28;20666;-63
2023/04/19 07:40:20;;;;;;;8.77;5.88;;;19.10;99.70;;;;;;5112793;28;20208;-63
2023/04/19 07:42:47;;;;;;;7.45;5.97;;;18.40;99.90;;;;;;5112947;28;20223;-63
2023/04/19 07:45:13;;;;;;;8.57;6.30;;;17.70;99.90;;;;;;5112952;28;20344;-63
2023/04/19 07:47:40;;;;;;;6.63;5.93;;;17.40;99.90;;;;;;5112931;28;20204;-63
2023/04/19 07:50:09;;;;;;;7.15;5.93;;;17.80;99.90;;;;;;5112323;28;20476;-63
2023/04/19 07:52:36;;;;;;;7.78;6.68;;;18.50;99.90;;;;;;5112557;28;20226;-62
2023/04/19 07:55:03;;;;;;;8.57;6.43;;;18.70;99.90;;;;;;5112618;28;20204;-64
2023/04/19 07:57:31;;;;;;;7.32;5.97;;;19.30;99.90;;;;;;5113414;28;20264;-63
2023/04/19 07:59:58;;;;;;;8.05;5.60;;;19.50;99.80;;;;;;5112241;28;20271;-62
2023/04/19 08:02:27;;;;;;;6.78;5.68;;;19.20;99.40;;;;;;5112640;28;20224;-63
2023/04/19 08:04:53;;;;;;;8.40;6.10;;;18.60;99.70;;;;;;5112871;28;20405;-63
2023/04/19 08:07:22;;;;;;;8.85;5.78;;;17.80;99.90;;;;;;5112482;28;20214;-62
2023/04/19 08:09:49;;;;;;;10.07;6.40;;;17.40;99.90;;;;;;5112031;28;20199;-62
2023/04/19 08:12:17;;;;;;;8.23;6.00;;;17.10;99.90;;;;;;5112056;28;20228;-63
2023/04/19 08:14:46;;;;;;;7.85;6.03;;;16.90;99.90;;;;;;5111112;28;20259;-60
2023/04/19 08:17:13;;;;;;;6.43;5.77;;;16.80;99.90;;;;;;5112286;28;20264;-63
2023/04/19 08:19:39;;;;;;;8.23;6.25;;;16.80;99.90;;;;;;5112051;28;20211;-63
2023/04/19 08:22:06;;;;;;;6.50;5.90;;;16.80;99.90;;;;;;5112282;28;20207;-60
2023/04/19 08:24:33;;;;;;;9.80;6.17;;;16.90;99.90;;;;;;5112041;28;20203;-63
2023/04/19 08:27:00;;;;;;;7.38;5.95;;;16.80;99.90;;;;;;5111459;28;20212;-64
2023/04/19 08:29:27;;;;;;;7.07;5.83;;;16.70;99.90;;;;;;5111899;28;20233;-62
2023/04/19 08:31:55;;;;;;;7.57;6.70;;;16.50;99.90;;;;;;5112126;28;20261;-63
2023/04/19 08:34:21;;;;;;;10.40;6.00;;;16.10;99.90;;;;;;5111525;28;20228;-63
2023/04/19 08:36:48;;;;;;;7.80;6.20;;;15.90;99.90;;;;;;5112148;28;20204;-66
2023/04/19 08:39:15;;;;;;;8.90;6.13;;;16.20;99.90;;;;;;5111496;28;20207;-63
2023/04/19 08:41:41;;;;;;;7.73;6.23;;;16.50;99.90;;;;;;5111845;28;20515;-63
2023/04/19 08:44:11;;;;;;;7.73;6.33;;;16.70;99.90;;;;;;5111951;28;20215;-63
2023/04/19 08:46:38;;;;;;;7.77;6.03;;;16.70;99.90;;;;;;5111857;28;20203;-63
2023/04/19 08:49:07;;;;;;;8.45;6.60;;;16.60;99.90;;;;;;5111364;28;20211;-63
2023/04/19 08:51:35;;;;;;;10.10;6.90;;;16.50;99.90;;;;;;5111254;28;20210;-64
2023/04/19 08:54:04;;;;;;;9.35;6.45;;;16.40;99.90;;;;;;5111332;28;20709;-65
2023/04/19 08:56:31;;;;;;;7.10;6.40;;;16.50;99.90;;;;;;5111790;28;20221;-64
2023/04/19 08:58:58;;;;;;;7.73;6.23;;;16.80;99.90;;;;;;5111555;28;20208;-63
2023/04/19 09:01:25;;;;;;;6.82;5.72;;;17.10;99.90;;;;;;5111569;28;20208;-62
2023/04/19 09:03:51;;;;;;;8.60;6.57;;;17.50;99.90;;;;;;5111627;28;20219;-64
2023/04/19 09:06:19;;;;;;;7.57;6.30;;;17.80;99.90;;;;;;5112385;28;20581;-63
2023/04/19 09:08:46;;;;;;;8.07;6.50;;;17.90;99.90;;;;;;5111838;28;20626;-63
2023/04/19 09:11:13;;;;;;;7.53;6.70;;;18.20;99.90;;;;;;5112954;28;20238;-64
2023/04/19 09:13:42;;;;;;;9.20;6.70;;;18.20;99.90;;;;;;5112283;28;20238;-64
2023/04/19 09:16:23;;;;;;;7.82;6.90;;;18.30;99.90;;;;;;5112724;28;20200;-64
2023/04/19 09:18:58;;;;;;;8.73;6.55;;;18.40;99.90;;;;;;5112112;28;20248;-63
2023/04/19 09:21:29;;;;;;;9.18;6.50;;;18.20;99.90;;;;;;5111484;28;20688;-63
2023/04/19 09:23:56;;;;;;;9.27;6.43;;;18.00;99.90;;;;;;5111308;28;20711;-65
2023/04/19 09:26:23;;;;;;;7.43;5.78;;;18.00;99.90;;;;;;5111171;28;20203;-65
2023/04/19 09:28:56;;;;;;;8.90;6.30;;;18.10;99.90;;;;;;5110928;28;20207;-63
2023/04/19 09:31:23;;;;;;;8.00;6.53;;;18.40;99.90;;;;;;5111193;28;20254;-64
2023/04/19 09:33:50;;;;;;;7.72;6.43;;;18.30;99.90;;;;;;5110977;28;20227;-64
2023/04/19 09:36:29;;;;;;;10.40;6.47;;;18.20;99.90;;;;;;5111240;28;20203;-63
2023/04/19 09:38:57;;;;;;;9.48;6.43;;;17.80;99.90;;;;;;5110696;28;20211;-63
2023/04/19 09:41:24;;;;;;;8.63;6.20;;;17.70;99.90;;;;;;5110949;28;20618;-64
2023/04/19 09:43:51;;;;;;;6.72;6.03;;;17.70;99.90;;;;;;5111043;28;20223;-64
2023/04/19 09:46:31;;;;;;;8.23;6.18;;;17.50;99.90;;;;;;5110956;28;20214;-65
2023/04/19 09:49:16;;;;;;;8.75;6.30;;;17.70;99.90;;;;;;5111003;28;20208;-65
2023/04/19 09:51:45;;;;;;;8.60;6.50;;;17.70;99.90;;;;;;5110687;28;20678;-64
2023/04/19 09:54:13;;;;;;;6.32;5.72;;;17.70;99.90;;;;;;5111036;28;20317;-63
2023/04/19 09:56:41;;;;;;;8.02;6.57;;;17.60;99.90;;;;;;5110993;28;20214;-65
2023/04/19 09:59:09;;;;;;;6.97;6.28;;;17.70;99.90;;;;;;5110774;28;20199;-64
2023/04/19 10:01:38;;;;;;;10.23;6.38;;;17.80;99.90;;;;;;5110979;28;20636;-64
2023/04/19 10:04:06;;;;;;;5.95;5.35;;;17.90;99.90;;;;;;5110628;28;20220;-64
2023/04/19 10:06:34;;;;;;;8.77;6.20;;;17.80;99.90;;;;;;5110994;28;20219;-67
2023/04/19 10:09:04;;;;;;;7.25;6.25;;;17.60;99.90;;;;;;5110634;28;20200;-71
2023/04/19 10:11:37;;;;;;;9.07;6.13;;;17.30;99.90;;;;;;5110813;28;20204;-66
2023/04/19 10:14:06;;;;;;;8.17;6.03;;;17.00;99.90;;;;;;5110783;28;20743;-66
2023/04/19 10:16:33;;;;;;;9.68;5.97;;;16.80;99.90;;;;;;5110590;28;20298;-66
2023/04/19 10:19:01;;;;;;;7.30;6.50;;;16.70;99.90;;;;;;5110497;28;20204;-66
2023/04/19 10:21:28;;;;;;;8.40;5.97;;;16.60;99.90;;;;;;5110832;28;20294;-65
2023/04/19 10:23:56;;;;;;;8.77;6.43;;;16.50;99.90;;;;;;5110531;28;20288;-66
2023/04/19 10:26:24;;;;;;;8.87;6.53;;;16.50;99.90;;;;;;5110933;28;20203;-66
2023/04/19 10:28:51;;;;;;;8.82;6.22;;;16.30;99.90;;;;;;5110100;28;20239;-70
2023/04/19 10:31:22;;;;;;;7.33;6.27;;;16.30;99.90;;;;;;5111117;28;20656;-68
2023/04/19 10:33:50;;;;;;;9.35;6.70;;;16.30;99.90;;;;;;5110898;28;20237;-64
2023/04/19 10:36:17;;;;;;;6.85;6.07;;;16.30;99.90;;;;;;5110392;28;20295;-65
2023/04/19 10:38:46;;;;;;;11.32;6.20;;;16.40;99.90;;;;;;5113275;28;20557;-64
2023/04/19 10:41:14;;;;;;;7.63;6.50;;;16.40;99.90;;;;;;5115944;28;20203;-63
2023/04/19 10:43:44;;;;;;;7.23;5.83;;;16.40;99.90;;;;;;5115980;28;20246;-64
2023/04/19 10:46:15;;;;;;;8.80;6.80;;;16.30;99.90;;;;;;5114330;28;20290;-65
2023/04/19 10:48:53;;;;;;;7.57;6.55;;;16.30;99.90;;;;;;5113742;27;20698;-67
2023/04/19 10:51:21;;;;;;;9.03;6.27;;;16.20;99.90;;;;;;5114618;28;20199;-66
2023/04/19 10:53:58;;;;;;;8.53;6.87;;;16.10;99.90;;;;;;5113831;28;20245;-64
2023/04/19 10:57:10;;;;;;;8.90;6.70;;;16.00;99.90;;;;;;5114107;28;20227;-64
2023/04/19 10:59:41;;;;;;;9.57;7.23;;;15.80;99.90;;;;;;5114115;28;20498;-63
2023/04/19 11:02:27;;;;;;;9.93;6.73;;;15.30;99.90;;;;;;5114017;28;20187;-65
2023/04/19 11:05:04;;;;;;;8.20;7.27;;;14.90;99.90;;;;;;5101222;28;20216;-61
2023/04/19 11:07:38;;;;;;;8.60;7.43;;;14.60;99.90;;;;;;5093036;28;20249;-64
2023/04/19 11:10:06;;;;;;;11.77;7.90;;;14.30;99.90;;;;;;5093174;28;20242;-63
2023/04/19 11:12:34;;;;;;;10.70;7.20;;;14.10;99.90;;;;;;5093677;28;20262;-62
2023/04/19 11:15:02;;;;;;;9.30;7.90;;;14.00;99.90;;;;;;5093218;28;20315;-62
2023/04/19 11:17:31;;;;;;;8.57;7.60;;;14.00;99.90;;;;;;5092852;28;20227;-63
2023/04/19 11:19:59;;;;;;;9.87;8.00;;;13.90;99.90;;;;;;5093289;28;20294;-61
2023/04/19 11:22:33;;;;;;;10.47;8.87;;;13.90;99.90;;;;;;5094182;28;20700;-61
2023/04/19 11:25:08;;;;;;;12.37;8.90;;;13.80;99.90;;;;;;5094042;28;20206;-61
2023/04/19 11:27:34;;;;;;;11.43;8.90;;;13.70;99.90;;;;;;5093903;28;20207;-65
2023/04/19 11:30:07;;;;;;;10.27;9.27;;;13.60;99.90;;;;;;5093784;28;20245;-62
2023/04/19 11:32:34;;;;;;;11.27;10.07;;;13.50;99.90;;;;;;5093820;28;20780;-61
2023/04/19 11:35:06;;;;;;;11.40;9.47;;;13.50;99.90;;;;;;5094009;28;20238;-61
2023/04/19 11:37:33;;;;;;;10.93;9.13;;;13.60;99.90;;;;;;5093942;28;20287;-61
2023/04/19 11:40:00;;;;;;;14.23;9.80;;;13.50;99.90;;;;;;5093781;28;20212;-61
2023/04/19 11:42:27;;;;;;;10.17;9.00;;;13.50;99.90;;;;;;5094005;28;20256;-61
2023/04/19 11:44:56;;;;;;;12.33;9.53;;;13.40;99.90;;;;;;5094042;28;20555;-62
2023/04/19 11:47:24;;;;;;;10.53;9.43;;;13.40;99.90;;;;;;5094040;28;20208;-61
2023/04/19 11:49:51;;;;;;;14.47;10.17;;;13.40;99.90;;;;;;5093573;28;20652;-61
2023/04/19 11:52:22;;;;;;;11.07;9.87;;;13.40;99.90;;;;;;5093705;28;20743;-61
2023/04/19 11:54:50;;;;;;;11.87;9.33;;;13.30;99.90;;;;;;5093703;28;20257;-61
2023/04/19 11:57:28;;;;;;;14.50;10.77;;;13.20;99.90;;;;;;5093592;28;20204;-61
2023/04/19 12:00:10;;;;;;;14.80;11.90;;;13.00;99.90;;;;;;5093777;28;20239;-62
2023/04/19 12:02:40;;;;;;;14.40;11.90;;;12.90;99.90;;;;;;5093685;28;20227;-62
2023/04/19 12:05:08;;;;;;;13.33;10.63;;;12.90;99.90;;;;;;5093730;28;20261;-60
2023/04/19 12:07:35;;;;;;;15.90;11.10;;;12.80;99.90;;;;;;5093556;28;20733;-61
2023/04/19 12:10:09;;;;;;;12.23;10.93;;;12.70;99.90;;;;;;5093335;28;20211;-61
2023/04/19 12:12:36;;;;;;;14.90;11.83;;;12.70;99.90;;;;;;5093813;28;20561;-62
2023/04/19 12:15:04;;;;;;;14.27;11.80;;;12.60;99.90;;;;;;5093307;28;20285;-60
2023/04/19 12:17:30;;;;;;;14.80;10.60;;;12.70;99.90;;;;;;5093006;28;20204;-63
2023/04/19 12:19:58;;;;;;;12.53;10.87;;;12.80;99.90;;;;;;5092891;28;20204;-61
2023/04/19 12:22:25;;;;;;;16.20;10.63;;;12.70;99.90;;;;;;5092869;28;20223;-61
2023/04/19 12:24:53;;;;;;;14.30;10.90;;;12.60;99.90;;;;;;5092777;28;20725;-61
2023/04/19 12:27:19;;;;;;;15.13;10.80;;;12.60;99.90;;;;;;5093236;28;20291;-61
2023/04/19 12:29:46;;;;;;;11.67;9.20;;;12.60;99.90;;;;;;5092982;28;20208;-61
2023/04/19 12:32:14;;;;;;;14.47;9.90;;;12.80;99.90;;;;;;5092879;28;20308;-62
2023/04/19 12:34:41;;;;;;;11.90;9.23;;;12.80;99.90;;;;;;5093222;28;20242;-62
2023/04/19 12:37:09;;;;;;;13.90;9.60;;;12.70;99.90;;;;;;5092673;28;20208;-61
2023/04/19 12:39:36;;;;;;;11.13;8.57;;;12.70;99.90;;;;;;5092703;28;20208;-61
2023/04/19 12:42:02;;;;;;;11.37;8.23;;;12.60;99.90;;;;;;5092734;28;20204;-61
2023/04/19 12:44:29;;;;;;;10.53;8.00;;;12.60;99.90;;;;;;5092818;28;20227;-62